Time;durP1;ratioP1;P1;durP2;ratioP2;P2;SDS_P1;SDS_P2;PMS_P1;PMS_P2;Temp;Humidity;BMP_temperature;BMP_pressure;BME280_temperature;BME280_humidity;BME280_pressure;Samples;Min_cycle;Max_cycle;Signal;HPM_P1;HPM_P2
2022/01/12 00:00:05;;;;;;;35.90;19.57;;;;;;;;;;5022898;28;20449;-80
2022/01/12 00:02:31;;;;;;;32.70;19.30;;;;;;;;;;5026459;28;20448;-80
2022/01/12 00:04:57;;;;;;;29.90;18.47;;;;;;;;;;5024918;28;20460;-80
2022/01/12 00:07:24;;;;;;;33.83;18.50;;;;;;;;;;5024960;28;20484;-80
2022/01/12 00:09:50;;;;;;;37.03;20.43;;;;;;;;;;5025628;28;20460;-80
2022/01/12 00:12:18;;;;;;;34.40;19.53;;;;;;;;;;5025591;28;20500;-80
2022/01/12 00:14:44;;;;;;;32.80;18.67;;;;;;;;;;5026617;28;20970;-80
2022/01/12 00:17:10;;;;;;;35.07;18.97;;;;;;;;;;5027521;28;21063;-80
2022/01/12 00:19:36;;;;;;;37.70;20.10;;;;;;;;;;5027622;28;20453;-80
2022/01/12 00:22:03;;;;;;;32.57;18.30;;;;;;;;;;5027916;28;20511;-80
2022/01/12 00:24:50;;;;;;;36.40;19.07;;;;;;;;;;5028707;28;20507;-80
2022/01/12 00:35:28;;;;;;;34.60;20.30;;;;;;;;;;5027036;28;20836;-80
2022/01/12 00:37:55;;;;;;;39.10;21.00;;;;;;;;;;5022678;28;21040;-80
2022/01/12 00:40:21;;;;;;;37.60;20.37;;;;;;;;;;5026583;28;21034;-81
2022/01/12 00:42:47;;;;;;;36.70;21.57;;;;;;;;;;5026167;28;20587;-79
2022/01/12 00:45:17;;;;;;;35.80;20.47;;;;;;;;;;5025862;28;20954;-81
2022/01/12 00:47:43;;;;;;;35.83;22.10;;;;;;;;;;5023817;28;20994;-79
2022/01/12 00:50:10;;;;;;;32.27;19.93;;;;;;;;;;5024603;28;20467;-80
2022/01/12 00:52:36;;;;;;;46.83;23.23;;;;;;;;;;5028176;28;21005;-80
2022/01/12 00:55:03;;;;;;;31.90;20.77;;;;;;;;;;5025783;28;20459;-80
2022/01/12 00:57:29;;;;;;;39.47;19.63;;;;;;;;;;5029592;28;20503;-80
2022/01/12 00:59:55;;;;;;;36.63;21.27;;;;;;;;;;5025528;28;20883;-80
2022/01/12 01:02:23;;;;;;;50.80;21.30;;;;;;;;;;5025814;28;20819;-80
2022/01/12 01:04:49;;;;;;;42.27;22.40;;;;;;;;;;5027206;28;20445;-81
2022/01/12 01:07:17;;;;;;;39.23;21.07;;;;;;;;;;5024852;28;20476;-80
2022/01/12 01:09:52;;;;;;;42.30;22.87;;;;;;;;;;5027108;28;20967;-81
2022/01/12 01:12:18;;;;;;;38.30;21.83;;;;;;;;;;5026968;28;20481;-79
2022/01/12 01:14:49;;;;;;;39.93;22.23;;;;;;;;;;5027920;28;20441;-80
2022/01/12 01:25:31;;;;;;;38.33;23.40;;;;;;;;;;5025976;28;20472;-81
2022/01/12 01:27:58;;;;;;;40.63;23.17;;;;;;;;;;5025759;28;20588;-81
2022/01/12 01:30:24;;;;;;;43.97;25.80;;;;;;;;;;5025553;28;20473;-82
2022/01/12 01:32:50;;;;;;;47.70;24.83;;;;;;;;;;5026233;28;20452;-82
2022/01/12 01:35:19;;;;;;;47.80;25.30;;;;;;;;;;5026517;28;20473;-82
2022/01/12 01:37:45;;;;;;;54.50;25.63;;;;;;;;;;5026900;28;20504;-82
2022/01/12 01:40:12;;;;;;;53.53;28.17;;;;;;;;;;5027722;28;20499;-82
2022/01/12 01:42:55;;;;;;;50.20;27.13;;;;;;;;;;5025469;28;20969;-82
2022/01/12 01:53:34;;;;;;;54.73;25.77;;;;;;;;;;5027233;28;20551;-81
2022/01/12 01:56:01;;;;;;;40.83;25.53;;;;;;;;;;5024021;28;20474;-82
2022/01/12 01:58:27;;;;;;;42.93;26.57;;;;;;;;;;5025487;28;20454;-81
2022/01/12 02:00:53;;;;;;;57.87;27.10;;;;;;;;;;5024349;28;20481;-82
2022/01/12 02:03:19;;;;;;;64.27;29.60;;;;;;;;;;5023664;28;20971;-82
2022/01/12 02:05:46;;;;;;;54.00;27.50;;;;;;;;;;5024912;28;20470;-81
2022/01/12 02:08:13;;;;;;;60.70;28.87;;;;;;;;;;5025148;28;20488;-82
2022/01/12 02:10:40;;;;;;;57.90;26.63;;;;;;;;;;5026038;28;20473;-82
2022/01/12 02:13:06;;;;;;;58.30;28.03;;;;;;;;;;5023511;28;20499;-82
2022/01/12 02:15:32;;;;;;;52.97;28.57;;;;;;;;;;5026103;28;20468;-81
2022/01/12 02:18:08;;;;;;;55.67;27.70;;;;;;;;;;5024837;28;20454;-78
2022/01/12 02:39:47;;;;;;;69.53;30.80;;;;;;;;;;5006851;28;20500;-82
2022/01/12 02:40:07;;;;;;;55.37;28.97;;;;;;;;;;5005583;28;20454;-81
2022/01/12 02:42:34;;;;;;;60.03;29.13;;;;;;;;;;5005197;28;21025;-82
2022/01/12 02:50:44;;;;;;;62.93;31.53;;;;;;;;;;5004753;28;20472;-82
2022/01/12 02:55:55;;;;;;;64.10;32.13;;;;;;;;;;5005752;28;20488;-82
2022/01/12 02:58:22;;;;;;;83.03;33.43;;;;;;;;;;5001162;28;20457;-82
2022/01/12 03:01:05;;;;;;;65.73;32.27;;;;;;;;;;5004455;28;20470;-81
2022/01/12 03:03:35;;;;;;;68.43;31.77;;;;;;;;;;5005217;28;20477;-82
2022/01/12 03:06:04;;;;;;;77.77;35.00;;;;;;;;;;5006394;28;20995;-82
2022/01/12 03:08:36;;;;;;;75.53;32.93;;;;;;;;;;5004531;28;20485;-82
2022/01/12 03:11:04;;;;;;;79.50;34.27;;;;;;;;;;5004498;28;20497;-82
2022/01/12 03:13:30;;;;;;;71.10;32.67;;;;;;;;;;5002465;28;20451;-82
2022/01/12 03:15:57;;;;;;;77.27;35.30;;;;;;;;;;5006006;28;20504;-82
2022/01/12 03:18:23;;;;;;;86.00;34.47;;;;;;;;;;5002529;28;20516;-82
2022/01/12 03:20:50;;;;;;;87.23;35.80;;;;;;;;;;5003329;28;21172;-82
2022/01/12 03:23:16;;;;;;;71.00;37.10;;;;;;;;;;5005043;28;20511;-82
2022/01/12 03:25:43;;;;;;;81.00;36.97;;;;;;;;;;5004483;28;20470;-82
2022/01/12 03:28:11;;;;;;;76.10;34.60;;;;;;;;;;5002386;28;20490;-82
2022/01/12 03:30:46;;;;;;;70.23;33.00;;;;;;;;;;5003579;28;20473;-82
2022/01/12 03:33:19;;;;;;;91.20;37.20;;;;;;;;;;5003428;28;20465;-82
2022/01/12 03:35:51;;;;;;;85.77;37.17;;;;;;;;;;5002920;28;20496;-81
2022/01/12 03:38:21;;;;;;;85.50;38.27;;;;;;;;;;5005572;28;20489;-82
2022/01/12 03:40:47;;;;;;;73.57;36.17;;;;;;;;;;5001939;28;20465;-82
2022/01/12 03:43:15;;;;;;;71.77;33.00;;;;;;;;;;5005551;28;20454;-82
2022/01/12 03:45:42;;;;;;;79.37;34.43;;;;;;;;;;5004803;28;20536;-82
2022/01/12 03:48:08;;;;;;;98.40;37.17;;;;;;;;;;5003638;28;20856;-83
2022/01/12 03:50:34;;;;;;;74.93;34.57;;;;;;;;;;5003154;28;20885;-83
2022/01/12 03:53:00;;;;;;;74.90;33.30;;;;;;;;;;5005081;28;21123;-83
2022/01/12 03:55:27;;;;;;;71.97;34.73;;;;;;;;;;5004692;28;20980;-82
2022/01/12 03:57:53;;;;;;;69.43;35.20;;;;;;;;;;5005463;28;20442;-82
2022/01/12 04:00:20;;;;;;;72.10;34.07;;;;;;;;;;5005321;28;20528;-82
2022/01/12 04:02:47;;;;;;;74.73;33.17;;;;;;;;;;5003773;28;20489;-82
2022/01/12 04:05:27;;;;;;;67.50;31.10;;;;;;;;;;5005535;28;20461;-82
2022/01/12 04:10:37;;;;;;;67.47;33.20;;;;;;;;;;5006493;28;20851;-83
2022/01/12 04:13:03;;;;;;;73.40;32.60;;;;;;;;;;5005650;28;20507;-83
2022/01/12 04:15:31;;;;;;;67.13;32.57;;;;;;;;;;5006363;28;20497;-82
2022/01/12 04:17:57;;;;;;;61.60;30.07;;;;;;;;;;5005250;28;20447;-83
2022/01/12 04:20:24;;;;;;;62.40;32.40;;;;;;;;;;5005150;28;20482;-83
2022/01/12 04:25:34;;;;;;;62.53;32.20;;;;;;;;;;5005215;28;20464;-83
2022/01/12 04:28:00;;;;;;;65.67;32.47;;;;;;;;;;5004727;28;20849;-82
2022/01/12 04:30:26;;;;;;;60.63;29.97;;;;;;;;;;5002364;28;20470;-83
2022/01/12 04:32:54;;;;;;;66.57;31.53;;;;;;;;;;5003456;28;20517;-80
2022/01/12 04:35:24;;;;;;;68.80;34.63;;;;;;;;;;5005295;28;20469;-82
2022/01/12 04:37:51;;;;;;;67.37;33.17;;;;;;;;;;5006073;28;20504;-82
2022/01/12 04:40:18;;;;;;;72.30;33.90;;;;;;;;;;5002276;28;20540;-82
2022/01/12 04:42:44;;;;;;;58.13;31.00;;;;;;;;;;5005287;28;20449;-82
2022/01/12 04:45:20;;;;;;;76.80;32.57;;;;;;;;;;5003881;28;20466;-82
2022/01/12 04:47:59;;;;;;;82.60;35.73;;;;;;;;;;5006798;28;21030;-83
2022/01/12 04:50:28;;;;;;;67.40;32.20;;;;;;;;;;5003142;28;20471;-83
2022/01/12 04:52:54;;;;;;;62.57;33.77;;;;;;;;;;5006771;28;20446;-82
2022/01/12 04:55:21;;;;;;;77.43;37.70;;;;;;;;;;5006732;28;20473;-83
2022/01/12 04:57:47;;;;;;;74.53;34.43;;;;;;;;;;5010165;28;20465;-82
2022/01/12 05:00:15;;;;;;;70.23;32.57;;;;;;;;;;5007725;28;20899;-83
2022/01/12 05:08:17;;;;;;;75.60;33.83;;;;;;;;;;5010878;28;20493;-83
2022/01/12 05:13:28;;;;;;;72.80;33.40;;;;;;;;;;5010308;28;20479;-83
2022/01/12 05:15:54;;;;;;;69.83;34.20;;;;;;;;;;5008283;28;20484;-82
2022/01/12 05:18:21;;;;;;;81.83;34.37;;;;;;;;;;5008937;28;20442;-83
2022/01/12 05:20:48;;;;;;;83.17;37.37;;;;;;;;;;5009873;28;20477;-83
2022/01/12 05:23:15;;;;;;;76.27;35.10;;;;;;;;;;5007556;28;20509;-82
2022/01/12 05:25:41;;;;;;;78.00;35.77;;;;;;;;;;5007893;28;20508;-82
2022/01/12 05:28:07;;;;;;;90.87;38.27;;;;;;;;;;5007000;28;20482;-82
2022/01/12 05:30:34;;;;;;;78.47;35.57;;;;;;;;;;5007687;28;20481;-82
2022/01/12 05:33:00;;;;;;;72.97;34.60;;;;;;;;;;5004554;28;20470;-83
2022/01/12 05:35:31;;;;;;;102.10;36.63;;;;;;;;;;5008793;28;20905;-82
2022/01/12 05:37:59;;;;;;;88.27;37.27;;;;;;;;;;5009207;28;20960;-83
2022/01/12 05:40:26;;;;;;;100.87;37.20;;;;;;;;;;5008974;28;20495;-82
2022/01/12 05:42:53;;;;;;;96.67;38.13;;;;;;;;;;5006726;28;20512;-83
2022/01/12 05:45:21;;;;;;;88.30;35.90;;;;;;;;;;5007986;28;20549;-83
2022/01/12 05:50:31;;;;;;;93.03;40.60;;;;;;;;;;5008223;28;20468;-82
2022/01/12 05:52:59;;;;;;;89.23;38.73;;;;;;;;;;5003290;28;20464;-81
2022/01/12 05:55:25;;;;;;;95.27;38.20;;;;;;;;;;5005785;28;20465;-81
2022/01/12 05:57:52;;;;;;;102.30;37.90;;;;;;;;;;5005937;28;20458;-82
2022/01/12 06:00:19;;;;;;;101.93;37.20;;;;;;;;;;5005371;28;20461;-82
2022/01/12 06:02:45;;;;;;;100.17;37.70;;;;;;;;;;5008832;28;20459;-82
2022/01/12 06:05:14;;;;;;;97.20;38.60;;;;;;;;;;5008297;28;20959;-82
2022/01/12 06:07:40;;;;;;;103.57;38.27;;;;;;;;;;5008294;28;20486;-83
2022/01/12 06:10:09;;;;;;;132.90;40.53;;;;;;;;;;5007447;28;20469;-82
2022/01/12 06:12:35;;;;;;;93.13;35.47;;;;;;;;;;5007911;28;20960;-82
2022/01/12 06:15:01;;;;;;;97.47;37.23;;;;;;;;;;5007190;28;20575;-82
2022/01/12 06:17:28;;;;;;;78.63;36.37;;;;;;;;;;5006617;28;21136;-82
2022/01/12 06:19:54;;;;;;;100.93;38.60;;;;;;;;;;5006557;28;20968;-81
2022/01/12 06:22:20;;;;;;;97.43;36.60;;;;;;;;;;5008493;28;20481;-81
2022/01/12 06:24:46;;;;;;;97.87;36.20;;;;;;;;;;5007504;28;20983;-82
2022/01/12 06:27:16;;;;;;;92.30;36.27;;;;;;;;;;5006666;28;20469;-82
2022/01/12 06:29:49;;;;;;;89.00;37.10;;;;;;;;;;5000776;28;20474;-81
2022/01/12 06:32:16;;;;;;;99.00;35.93;;;;;;;;;;5005458;28;21012;-81
2022/01/12 06:34:42;;;;;;;98.80;38.40;;;;;;;;;;5005574;28;20449;-80
2022/01/12 06:37:08;;;;;;;92.20;37.27;;;;;;;;;;5006205;28;20477;-82
2022/01/12 06:39:35;;;;;;;87.03;36.67;;;;;;;;;;5004736;28;20470;-82
2022/01/12 06:42:01;;;;;;;100.67;38.40;;;;;;;;;;5005655;28;20478;-81
2022/01/12 06:44:28;;;;;;;117.13;42.50;;;;;;;;;;5004803;28;20488;-82
2022/01/12 06:46:56;;;;;;;109.83;38.83;;;;;;;;;;5006014;28;20528;-82
2022/01/12 06:49:22;;;;;;;96.43;37.30;;;;;;;;;;5004383;28;20485;-82
2022/01/12 06:51:49;;;;;;;100.87;38.97;;;;;;;;;;5004307;28;20479;-82
2022/01/12 06:54:16;;;;;;;107.40;42.73;;;;;;;;;;5004837;28;20449;-82
2022/01/12 06:56:43;;;;;;;122.43;39.43;;;;;;;;;;5005993;28;20501;-81
2022/01/12 06:59:09;;;;;;;106.40;39.73;;;;;;;;;;5005251;28;20597;-82
2022/01/12 07:01:37;;;;;;;121.97;42.10;;;;;;;;;;5004676;28;20850;-82
2022/01/12 07:04:03;;;;;;;113.27;41.57;;;;;;;;;;5003706;28;20438;-82
2022/01/12 07:06:29;;;;;;;111.97;40.37;;;;;;;;;;5004961;28;20473;-82
2022/01/12 07:08:56;;;;;;;131.00;42.37;;;;;;;;;;5004875;28;20486;-82
2022/01/12 07:11:22;;;;;;;109.13;39.87;;;;;;;;;;5005200;28;21034;-82
2022/01/12 07:13:48;;;;;;;116.27;42.00;;;;;;;;;;5003245;28;20552;-82
2022/01/12 07:16:15;;;;;;;106.03;39.30;;;;;;;;;;5003518;28;20492;-81
2022/01/12 07:18:42;;;;;;;109.67;39.40;;;;;;;;;;5004660;28;20485;-82
2022/01/12 07:21:08;;;;;;;131.63;40.73;;;;;;;;;;5006223;28;20849;-82
2022/01/12 07:23:35;;;;;;;120.77;39.73;;;;;;;;;;5003760;28;20976;-82
2022/01/12 07:26:01;;;;;;;113.80;39.87;;;;;;;;;;5004185;28;20477;-82
2022/01/12 07:28:27;;;;;;;108.80;41.60;;;;;;;;;;5002453;28;20549;-82
2022/01/12 07:30:53;;;;;;;131.73;41.20;;;;;;;;;;5006283;28;20841;-82
2022/01/12 07:33:20;;;;;;;101.23;39.13;;;;;;;;;;5007767;28;20527;-82
2022/01/12 07:35:48;;;;;;;136.03;44.43;;;;;;;;;;5002515;28;20478;-80
2022/01/12 07:38:14;;;;;;;113.63;41.00;;;;;;;;;;5005339;28;20492;-82
2022/01/12 07:40:41;;;;;;;101.47;38.60;;;;;;;;;;5006041;28;20478;-82
2022/01/12 07:43:07;;;;;;;136.33;44.43;;;;;;;;;;5005760;28;20652;-82
2022/01/12 07:45:34;;;;;;;97.40;41.60;;;;;;;;;;5004225;28;20477;-82
2022/01/12 07:48:00;;;;;;;111.00;40.60;;;;;;;;;;5005269;28;20954;-80
2022/01/12 07:50:27;;;;;;;159.50;42.53;;;;;;;;;;5004132;28;20466;-82
2022/01/12 07:52:54;;;;;;;94.13;41.13;;;;;;;;;;5004645;28;20465;-82
2022/01/12 07:55:21;;;;;;;104.43;41.67;;;;;;;;;;5004906;28;20469;-82
2022/01/12 07:57:47;;;;;;;135.60;42.70;;;;;;;;;;5004865;28;20510;-82
2022/01/12 08:00:14;;;;;;;155.43;44.80;;;;;;;;;;5003828;28;20455;-82
2022/01/12 08:02:41;;;;;;;103.30;42.17;;;;;;;;;;5004277;28;20450;-82
2022/01/12 08:05:07;;;;;;;126.80;42.57;;;;;;;;;;5003060;28;20462;-82
2022/01/12 08:07:36;;;;;;;128.43;43.97;;;;;;;;;;5006662;28;20556;-83
2022/01/12 08:10:04;;;;;;;99.13;40.00;;;;;;;;;;5004214;28;20482;-82
2022/01/12 08:12:31;;;;;;;112.53;41.30;;;;;;;;;;5004962;28;20446;-82
2022/01/12 08:14:57;;;;;;;112.57;41.50;;;;;;;;;;5004453;28;20465;-82
2022/01/12 08:17:23;;;;;;;132.30;42.07;;;;;;;;;;5002954;28;20473;-82
2022/01/12 08:19:53;;;;;;;140.27;42.37;;;;;;;;;;5004950;28;20463;-82
2022/01/12 08:22:19;;;;;;;127.97;42.00;;;;;;;;;;5004016;28;20470;-82
2022/01/12 08:24:45;;;;;;;94.97;37.93;;;;;;;;;;5004173;28;20489;-83
2022/01/12 08:27:13;;;;;;;141.03;43.80;;;;;;;;;;5003268;28;20477;-82
2022/01/12 08:29:39;;;;;;;105.23;39.80;;;;;;;;;;5006037;28;20494;-83
2022/01/12 08:32:06;;;;;;;128.03;43.37;;;;;;;;;;5009224;28;20524;-82
2022/01/12 08:34:32;;;;;;;130.13;44.90;;;;;;;;;;5008159;28;20951;-82
2022/01/12 08:36:58;;;;;;;110.23;42.00;;;;;;;;;;5007500;28;20493;-82
2022/01/12 08:39:25;;;;;;;124.83;42.87;;;;;;;;;;5009137;28;20446;-82
2022/01/12 08:41:51;;;;;;;119.13;40.27;;;;;;;;;;5007842;28;20470;-82
2022/01/12 08:44:18;;;;;;;111.80;41.20;;;;;;;;;;5008857;28;20528;-82
2022/01/12 08:46:45;;;;;;;108.33;41.90;;;;;;;;;;5006881;28;20478;-82
2022/01/12 08:49:11;;;;;;;133.07;42.27;;;;;;;;;;5009272;28;20522;-82
2022/01/12 08:51:37;;;;;;;121.70;43.70;;;;;;;;;;5007073;28;20470;-82
2022/01/12 08:54:04;;;;;;;112.97;39.00;;;;;;;;;;5006588;28;20458;-82
2022/01/12 08:56:30;;;;;;;99.13;39.10;;;;;;;;;;5007839;28;20470;-82
2022/01/12 08:58:57;;;;;;;156.60;40.50;;;;;;;;;;5007131;28;20467;-82
2022/01/12 09:01:24;;;;;;;142.50;39.03;;;;;;;;;;5006141;28;20477;-82
2022/01/12 09:03:51;;;;;;;130.10;39.50;;;;;;;;;;5007729;28;21005;-82
2022/01/12 09:06:17;;;;;;;140.90;37.00;;;;;;;;;;5006605;28;20509;-82
2022/01/12 09:08:45;;;;;;;88.60;38.20;;;;;;;;;;5008367;28;20548;-81
2022/01/12 09:11:12;;;;;;;187.23;39.43;;;;;;;;;;5007770;28;21032;-82
2022/01/12 09:13:38;;;;;;;119.97;36.00;;;;;;;;;;5007200;28;20451;-82
2022/01/12 09:16:06;;;;;;;104.47;35.40;;;;;;;;;;5007595;28;20883;-82
2022/01/12 09:18:35;;;;;;;105.67;38.03;;;;;;;;;;5007148;28;21059;-82
2022/01/12 09:21:01;;;;;;;159.30;43.57;;;;;;;;;;5005080;28;20488;-82
2022/01/12 09:23:27;;;;;;;111.80;34.27;;;;;;;;;;5007338;28;20466;-82
2022/01/12 09:25:54;;;;;;;119.97;35.00;;;;;;;;;;5005506;28;20519;-82
2022/01/12 09:28:20;;;;;;;109.67;38.47;;;;;;;;;;5008767;28;20458;-82
2022/01/12 09:30:46;;;;;;;92.63;36.03;;;;;;;;;;5008856;28;20473;-82
2022/01/12 09:33:12;;;;;;;116.13;34.70;;;;;;;;;;5008230;28;20454;-82
2022/01/12 09:35:40;;;;;;;110.60;35.23;;;;;;;;;;5005417;28;20479;-82
2022/01/12 09:38:06;;;;;;;142.00;36.97;;;;;;;;;;5007294;28;20474;-82
2022/01/12 09:40:33;;;;;;;91.47;32.30;;;;;;;;;;5003813;28;20524;-82
2022/01/12 09:43:03;;;;;;;115.83;34.70;;;;;;;;;;5008448;28;20453;-82
2022/01/12 09:45:29;;;;;;;76.37;33.83;;;;;;;;;;5008296;28;20462;-82
2022/01/12 09:47:56;;;;;;;118.67;37.60;;;;;;;;;;5008001;28;20465;-82
2022/01/12 09:50:23;;;;;;;113.07;36.70;;;;;;;;;;5007111;28;20972;-82
2022/01/12 09:52:51;;;;;;;110.73;33.00;;;;;;;;;;5007085;28;20455;-82
2022/01/12 09:55:17;;;;;;;104.07;33.50;;;;;;;;;;5007099;28;20622;-82
2022/01/12 09:57:43;;;;;;;91.67;35.50;;;;;;;;;;5006664;28;20811;-82
2022/01/12 10:00:10;;;;;;;81.80;34.80;;;;;;;;;;5006261;28;20490;-82
2022/01/12 10:02:36;;;;;;;90.70;36.43;;;;;;;;;;5007891;28;20864;-82
2022/01/12 10:05:04;;;;;;;81.50;33.77;;;;;;;;;;5006299;28;20458;-82
2022/01/12 10:07:30;;;;;;;99.60;37.90;;;;;;;;;;5007847;28;20470;-82
2022/01/12 10:10:00;;;;;;;79.67;32.57;;;;;;;;;;5006757;28;21016;-82
2022/01/12 10:12:27;;;;;;;91.33;35.87;;;;;;;;;;5008393;28;20489;-83
2022/01/12 10:14:55;;;;;;;89.80;34.03;;;;;;;;;;5007361;28;20443;-82
2022/01/12 10:17:32;;;;;;;83.13;32.33;;;;;;;;;;5026969;28;20519;-82
2022/01/12 10:20:05;;;;;;;75.80;34.83;;;;;;;;;;5026332;28;20453;-82
2022/01/12 10:22:31;;;;;;;80.63;32.80;;;;;;;;;;5026551;28;20444;-82
2022/01/12 10:25:00;;;;;;;91.10;35.33;;;;;;;;;;5027486;28;20530;-82
2022/01/12 10:27:26;;;;;;;89.33;33.63;;;;;;;;;;5026651;28;20519;-82
2022/01/12 10:29:56;;;;;;;94.20;37.67;;;;;;;;;;5026691;28;20492;-82
2022/01/12 10:32:22;;;;;;;69.33;30.60;;;;;;;;;;5004845;28;21054;-82
2022/01/12 10:34:49;;;;;;;73.67;30.90;;;;;;;;;;5008168;28;20991;-82
2022/01/12 10:37:16;;;;;;;73.93;29.67;;;;;;;;;;5007402;28;20481;-82
2022/01/12 10:39:43;;;;;;;65.90;28.30;;;;;;;;;;5006439;28;20450;-80
2022/01/12 10:42:12;;;;;;;69.40;29.03;;;;;;;;;;5004075;28;21024;-82
2022/01/12 10:44:40;;;;;;;72.50;31.37;;;;;;;;;;5003328;28;20450;-81
2022/01/12 10:47:10;;;;;;;68.27;31.20;;;;;;;;;;5003312;28;20489;-83
2022/01/12 10:49:37;;;;;;;68.73;30.77;;;;;;;;;;5002474;28;20904;-82
2022/01/12 10:52:04;;;;;;;76.07;32.27;;;;;;;;;;5004711;28;20476;-82
2022/01/12 10:54:41;;;;;;;71.63;30.70;;;;;;;;;;5003885;28;20533;-81
2022/01/12 10:57:14;;;;;;;81.40;32.93;;;;;;;;;;5002975;28;20907;-82
2022/01/12 10:59:41;;;;;;;68.67;31.53;;;;;;;;;;5002624;28;20461;-82
2022/01/12 11:02:07;;;;;;;75.37;33.70;;;;;;;;;;5002027;28;20478;-82
2022/01/12 11:04:35;;;;;;;70.40;31.70;;;;;;;;;;5003223;28;20466;-81
2022/01/12 11:07:02;;;;;;;78.83;34.30;;;;;;;;;;5003762;28;20478;-82
2022/01/12 11:09:28;;;;;;;77.60;35.00;;;;;;;;;;5002474;28;20559;-82
2022/01/12 11:11:55;;;;;;;81.50;32.67;;;;;;;;;;5003975;28;20478;-82
2022/01/12 11:14:22;;;;;;;73.83;31.87;;;;;;;;;;5004105;28;20489;-82
2022/01/12 11:16:48;;;;;;;83.10;34.13;;;;;;;;;;5002890;28;20512;-82
2022/01/12 11:19:16;;;;;;;79.30;33.20;;;;;;;;;;5004329;28;20450;-81
2022/01/12 11:21:44;;;;;;;80.37;33.70;;;;;;;;;;5003752;28;20537;-78
2022/01/12 11:24:11;;;;;;;72.90;31.63;;;;;;;;;;5003512;28;20456;-82
2022/01/12 11:26:38;;;;;;;77.30;32.20;;;;;;;;;;5001605;28;20467;-82
2022/01/12 11:29:04;;;;;;;64.00;29.20;;;;;;;;;;5002633;28;20517;-82
2022/01/12 11:31:32;;;;;;;60.50;26.87;;;;;;;;;;5003303;28;20493;-82
2022/01/12 11:33:59;;;;;;;66.17;29.30;;;;;;;;;;5002773;28;20439;-82
2022/01/12 11:36:27;;;;;;;58.53;28.17;;;;;;;;;;5002867;28;20474;-81
2022/01/12 11:39:00;;;;;;;60.20;28.50;;;;;;;;;;5004504;28;20462;-82
2022/01/12 11:41:28;;;;;;;61.43;29.03;;;;;;;;;;5000818;28;20486;-82
2022/01/12 11:43:55;;;;;;;58.43;27.70;;;;;;;;;;5003805;28;20867;-82
2022/01/12 11:46:22;;;;;;;53.13;26.07;;;;;;;;;;5002008;28;20478;-82
2022/01/12 11:48:50;;;;;;;56.67;25.63;;;;;;;;;;5002700;28;20438;-82
2022/01/12 11:51:17;;;;;;;52.20;25.77;;;;;;;;;;5002554;28;20480;-82
2022/01/12 11:53:45;;;;;;;57.50;23.37;;;;;;;;;;5002857;28;20501;-81
2022/01/12 11:56:12;;;;;;;50.80;24.17;;;;;;;;;;5002155;28;20470;-82
2022/01/12 11:58:49;;;;;;;49.73;21.40;;;;;;;;;;5004378;28;20528;-82
2022/01/12 12:01:16;;;;;;;51.90;20.83;;;;;;;;;;5002083;28;20466;-82
2022/01/12 12:03:42;;;;;;;42.43;18.90;;;;;;;;;;5006761;28;20553;-79
2022/01/12 12:06:17;;;;;;;47.60;20.23;;;;;;;;;;5008705;28;20478;-82
2022/01/12 12:08:55;;;;;;;47.03;19.97;;;;;;;;;;5003411;28;20899;-80
2022/01/12 12:11:21;;;;;;;42.37;18.90;;;;;;;;;;5006534;28;21040;-82
2022/01/12 12:13:48;;;;;;;43.50;19.37;;;;;;;;;;5007310;28;20454;-81
2022/01/12 12:16:14;;;;;;;45.60;18.43;;;;;;;;;;5006161;28;20490;-82
2022/01/12 12:18:40;;;;;;;34.97;15.40;;;;;;;;;;5006525;28;20868;-82
2022/01/12 12:21:07;;;;;;;38.00;16.83;;;;;;;;;;5003836;28;20825;-82
2022/01/12 12:23:34;;;;;;;44.10;17.10;;;;;;;;;;5008295;28;20461;-82
2022/01/12 12:26:01;;;;;;;48.57;17.17;;;;;;;;;;5005342;28;20485;-81
2022/01/12 12:28:27;;;;;;;42.37;18.57;;;;;;;;;;5008034;28;20515;-82
2022/01/12 12:30:54;;;;;;;48.63;20.13;;;;;;;;;;5008285;28;20481;-82
2022/01/12 12:33:21;;;;;;;41.13;17.13;;;;;;;;;;5006145;28;20446;-82
2022/01/12 12:35:48;;;;;;;38.67;17.60;;;;;;;;;;5008303;28;20484;-82
2022/01/12 12:38:15;;;;;;;40.07;18.53;;;;;;;;;;5006645;28;20502;-82
2022/01/12 12:40:43;;;;;;;39.97;19.63;;;;;;;;;;5006601;28;20480;-82
2022/01/12 12:43:13;;;;;;;36.10;17.63;;;;;;;;;;5008035;28;20507;-82
2022/01/12 12:45:40;;;;;;;33.87;17.10;;;;;;;;;;5007344;28;20585;-82
2022/01/12 12:48:07;;;;;;;34.20;16.33;;;;;;;;;;5007659;28;20525;-82
2022/01/12 12:50:34;;;;;;;36.03;16.93;;;;;;;;;;5007620;28;20842;-81
2022/01/12 12:53:00;;;;;;;33.70;15.93;;;;;;;;;;5008081;28;20516;-82
2022/01/12 12:55:26;;;;;;;49.70;17.60;;;;;;;;;;5008029;28;20474;-79
2022/01/12 12:57:56;;;;;;;35.50;17.23;;;;;;;;;;5008352;28;20492;-82
2022/01/12 13:00:23;;;;;;;29.13;15.20;;;;;;;;;;5007484;28;20874;-82
2022/01/12 13:02:51;;;;;;;36.20;16.80;;;;;;;;;;5007542;28;20499;-82
2022/01/12 13:05:18;;;;;;;34.63;16.13;;;;;;;;;;5008567;28;21016;-82
2022/01/12 13:07:46;;;;;;;34.73;15.97;;;;;;;;;;5007478;28;20845;-82
2022/01/12 13:10:14;;;;;;;32.53;15.33;;;;;;;;;;5008084;28;20513;-82
2022/01/12 13:12:41;;;;;;;44.60;18.43;;;;;;;;;;5007502;28;20548;-81
2022/01/12 13:15:11;;;;;;;39.37;17.70;;;;;;;;;;5005372;28;20515;-82
2022/01/12 13:17:39;;;;;;;37.80;17.83;;;;;;;;;;5007261;28;20496;-82
2022/01/12 13:22:51;;;;;;;35.73;18.10;;;;;;;;;;5004672;28;21121;-81
2022/01/12 13:25:17;;;;;;;36.43;18.27;;;;;;;;;;5005863;28;21014;-82
2022/01/12 13:27:45;;;;;;;38.37;16.60;;;;;;;;;;5006232;28;20475;-81
2022/01/12 13:30:23;;;;;;;35.00;15.40;;;;;;;;;;5006658;28;20494;-82
2022/01/12 13:32:51;;;;;;;30.47;13.57;;;;;;;;;;5005437;28;20529;-81
2022/01/12 13:35:17;;;;;;;34.27;16.43;;;;;;;;;;5007744;28;20505;-80
2022/01/12 13:37:52;;;;;;;26.70;13.77;;;;;;;;;;5001039;28;20506;-78
2022/01/12 13:40:19;;;;;;;29.40;14.60;;;;;;;;;;5006035;28;20461;-81
2022/01/12 13:42:49;;;;;;;29.10;13.53;;;;;;;;;;5003834;28;20888;-82
2022/01/12 13:45:18;;;;;;;35.20;14.53;;;;;;;;;;5006492;28;20829;-80
2022/01/12 13:47:49;;;;;;;32.20;15.00;;;;;;;;;;5007237;28;20498;-80
2022/01/12 13:50:17;;;;;;;39.23;16.50;;;;;;;;;;5005612;28;20508;-80
2022/01/12 13:52:52;;;;;;;45.60;18.57;;;;;;;;;;5006076;28;20474;-83
2022/01/12 13:55:19;;;;;;;36.60;16.53;;;;;;;;;;5006368;28;20461;-81
2022/01/12 13:57:45;;;;;;;32.93;16.30;;;;;;;;;;5004762;28;20485;-80
2022/01/12 14:00:19;;;;;;;41.50;17.20;;;;;;;;;;5004278;28;20441;-81
2022/01/12 14:02:46;;;;;;;48.83;17.43;;;;;;;;;;5005968;28;21007;-81
2022/01/12 14:05:18;;;;;;;44.23;19.67;;;;;;;;;;5005036;28;20513;-81
2022/01/12 14:07:58;;;;;;;42.80;21.43;;;;;;;;;;5006395;28;20481;-81
2022/01/12 14:10:25;;;;;;;39.70;20.40;;;;;;;;;;5006102;28;20469;-81
2022/01/12 14:12:51;;;;;;;43.77;18.63;;;;;;;;;;5006065;28;20460;-81
2022/01/12 14:15:22;;;;;;;42.70;21.70;;;;;;;;;;5005100;28;20516;-80
2022/01/12 14:17:48;;;;;;;42.10;18.87;;;;;;;;;;5006200;28;20460;-81
2022/01/12 14:20:22;;;;;;;39.70;20.50;;;;;;;;;;5004910;28;20515;-81
2022/01/12 14:22:50;;;;;;;37.20;20.00;;;;;;;;;;5005233;28;20466;-79
2022/01/12 14:25:17;;;;;;;40.87;19.30;;;;;;;;;;5003848;28;20537;-80
2022/01/12 14:27:44;;;;;;;38.97;18.60;;;;;;;;;;5002177;28;20469;-79
2022/01/12 14:30:12;;;;;;;35.70;17.83;;;;;;;;;;5004477;28;20523;-80
2022/01/12 14:32:41;;;;;;;37.97;16.80;;;;;;;;;;5006551;28;21006;-80
2022/01/12 14:35:09;;;;;;;43.77;17.63;;;;;;;;;;5008448;28;20493;-81
2022/01/12 14:37:35;;;;;;;34.60;19.07;;;;;;;;;;5007281;28;21064;-80
2022/01/12 14:40:04;;;;;;;35.03;17.07;;;;;;;;;;5005704;28;20960;-81
2022/01/12 14:42:30;;;;;;;39.17;18.43;;;;;;;;;;5005424;28;20473;-80
2022/01/12 14:44:56;;;;;;;44.30;17.77;;;;;;;;;;5005835;28;20437;-80
2022/01/12 14:47:22;;;;;;;41.23;16.70;;;;;;;;;;5004821;28;20477;-81
2022/01/12 14:49:50;;;;;;;41.03;17.83;;;;;;;;;;5004828;28;20457;-80
2022/01/12 14:52:16;;;;;;;33.70;16.00;;;;;;;;;;5006325;28;20466;-81
2022/01/12 14:54:42;;;;;;;40.50;16.50;;;;;;;;;;5006753;28;20496;-79
2022/01/12 14:57:09;;;;;;;46.40;15.97;;;;;;;;;;5002789;28;20567;-81
2022/01/12 14:59:35;;;;;;;28.33;15.20;;;;;;;;;;5005319;28;20450;-81
2022/01/12 15:02:01;;;;;;;34.10;13.97;;;;;;;;;;5004177;28;21142;-81
2022/01/12 15:04:28;;;;;;;23.70;13.37;;;;;;;;;;5005283;28;20874;-81
2022/01/12 15:06:55;;;;;;;26.67;13.73;;;;;;;;;;5005304;28;20540;-80
2022/01/12 15:09:22;;;;;;;29.53;15.33;;;;;;;;;;5005687;28;20454;-81
2022/01/12 15:11:50;;;;;;;22.43;12.27;;;;;;;;;;5003624;28;20481;-81
2022/01/12 15:14:31;;;;;;;28.27;12.30;;;;;;;;;;5005442;28;20863;-80
2022/01/12 15:16:57;;;;;;;26.43;13.70;;;;;;;;;;5005293;28;20474;-81
2022/01/12 15:19:24;;;;;;;26.37;13.23;;;;;;;;;;5003698;28;20525;-81
2022/01/12 15:21:50;;;;;;;30.30;14.13;;;;;;;;;;5004138;28;20459;-81
2022/01/12 15:24:17;;;;;;;22.93;13.37;;;;;;;;;;5002228;28;20462;-81